Time;durP1;ratioP1;P1;durP2;ratioP2;P2;SDS_P1;SDS_P2;PMS_P1;PMS_P2;Temp;Humidity;BMP_temperature;BMP_pressure;BME280_temperature;BME280_humidity;BME280_pressure;Samples;Min_cycle;Max_cycle;Signal;HPM_P1;HPM_P2
2021/10/22 00:01:43;;;;;;;12.13;1.30;;;;;;;;;;5039974;28;20045;-63
2021/10/22 00:04:10;;;;;;;8.57;1.45;;;;;;;;;;5033929;28;20053;-64
2021/10/22 00:06:36;;;;;;;7.82;1.20;;;;;;;;;;5030915;28;20478;-62
2021/10/22 00:09:02;;;;;;;7.30;1.30;;;;;;;;;;5043542;28;20051;-62
2021/10/22 00:11:29;;;;;;;11.25;1.48;;;;;;;;;;5032445;28;20891;-62
2021/10/22 00:13:55;;;;;;;9.10;1.35;;;;;;;;;;5037309;28;20049;-62
2021/10/22 00:16:21;;;;;;;8.65;1.52;;;;;;;;;;5031933;28;20509;-64
2021/10/22 00:18:48;;;;;;;5.38;0.90;;;;;;;;;;5037700;28;20045;-62
2021/10/22 00:21:14;;;;;;;10.48;1.23;;;;;;;;;;5034143;28;20103;-62
2021/10/22 00:23:40;;;;;;;5.72;1.27;;;;;;;;;;5037826;28;20060;-63
2021/10/22 00:26:07;;;;;;;8.57;1.13;;;;;;;;;;5030833;28;20057;-62
2021/10/22 00:28:34;;;;;;;7.10;1.20;;;;;;;;;;5036932;28;20056;-62
2021/10/22 00:31:00;;;;;;;9.82;1.30;;;;;;;;;;5026507;28;20053;-64
2021/10/22 00:33:26;;;;;;;12.68;1.65;;;;;;;;;;5038222;28;20053;-63
2021/10/22 00:35:53;;;;;;;6.88;1.00;;;;;;;;;;5031918;28;20382;-62
2021/10/22 00:38:19;;;;;;;4.88;1.13;;;;;;;;;;5040832;28;20060;-63
2021/10/22 00:41:05;;;;;;;8.93;1.52;;;;;;;;;;5038432;28;20144;-63
2021/10/22 00:43:33;;;;;;;10.98;1.30;;;;;;;;;;5035746;28;20053;-63
2021/10/22 00:45:59;;;;;;;7.55;1.67;;;;;;;;;;5028216;28;20049;-64
2021/10/22 00:48:26;;;;;;;7.32;1.10;;;;;;;;;;5041225;28;20561;-63
2021/10/22 00:50:58;;;;;;;9.77;1.52;;;;;;;;;;5032931;28;20140;-62
2021/10/22 00:53:26;;;;;;;14.52;1.48;;;;;;;;;;5045041;28;20048;-62
2021/10/22 00:55:53;;;;;;;5.22;1.00;;;;;;;;;;5045034;28;20060;-63
2021/10/22 00:58:21;;;;;;;12.00;1.95;;;;;;;;;;5041347;28;20053;-62
2021/10/22 01:00:48;;;;;;;9.77;1.73;;;;;;;;;;5036432;28;20048;-62
2021/10/22 01:03:15;;;;;;;12.82;1.75;;;;;;;;;;5024571;28;20096;-61
2021/10/22 01:05:42;;;;;;;15.95;2.03;;;;;;;;;;5036558;28;20060;-64
2021/10/22 01:08:08;;;;;;;16.42;2.30;;;;;;;;;;5037742;28;20052;-63
2021/10/22 01:10:38;;;;;;;6.50;1.70;;;;;;;;;;5031631;28;20047;-63
2021/10/22 01:13:05;;;;;;;9.82;1.77;;;;;;;;;;5037918;28;20056;-62
2021/10/22 01:15:32;;;;;;;13.30;2.30;;;;;;;;;;5014129;28;20052;-62
2021/10/22 01:18:00;;;;;;;6.60;1.50;;;;;;;;;;5037673;28;20062;-63
2021/10/22 01:20:27;;;;;;;9.02;1.38;;;;;;;;;;5027602;28;20737;-63
2021/10/22 01:22:55;;;;;;;6.82;1.38;;;;;;;;;;5039900;28;20548;-61
2021/10/22 01:25:26;;;;;;;11.52;2.72;;;;;;;;;;5025609;28;20076;-63
2021/10/22 01:27:52;;;;;;;15.98;1.92;;;;;;;;;;5040381;28;20049;-63
2021/10/22 01:30:20;;;;;;;10.05;1.75;;;;;;;;;;5025431;28;20045;-63
2021/10/22 01:32:49;;;;;;;11.23;1.95;;;;;;;;;;5040093;28;20076;-63
2021/10/22 01:35:15;;;;;;;11.45;2.20;;;;;;;;;;5024572;28;20505;-62
2021/10/22 01:37:42;;;;;;;7.93;1.63;;;;;;;;;;5040006;28;20144;-61
2021/10/22 01:40:08;;;;;;;10.27;1.77;;;;;;;;;;5023899;28;20045;-59
2021/10/22 01:42:35;;;;;;;15.05;1.88;;;;;;;;;;5038978;28;20072;-62
2021/10/22 01:45:01;;;;;;;13.38;1.90;;;;;;;;;;5030249;28;20049;-63
2021/10/22 01:47:27;;;;;;;8.30;1.80;;;;;;;;;;5042725;28;20044;-63
2021/10/22 01:49:54;;;;;;;9.07;1.40;;;;;;;;;;5023220;28;20056;-63
2021/10/22 01:52:20;;;;;;;7.18;1.25;;;;;;;;;;5037933;28;20049;-63
2021/10/22 01:54:47;;;;;;;8.48;1.45;;;;;;;;;;5025215;28;20045;-63
2021/10/22 01:57:14;;;;;;;9.20;1.40;;;;;;;;;;5040138;28;20057;-62
2021/10/22 01:59:41;;;;;;;9.75;1.55;;;;;;;;;;5029433;28;20056;-63
2021/10/22 02:02:07;;;;;;;13.15;1.70;;;;;;;;;;5036829;28;20683;-63
2021/10/22 02:04:34;;;;;;;9.70;1.13;;;;;;;;;;5038533;28;20512;-63
2021/10/22 02:07:00;;;;;;;6.80;1.42;;;;;;;;;;5038953;28;20041;-63
2021/10/22 02:09:26;;;;;;;12.07;1.67;;;;;;;;;;5037308;28;20052;-63
2021/10/22 02:11:53;;;;;;;11.00;1.40;;;;;;;;;;5038135;28;20056;-63
2021/10/22 02:14:19;;;;;;;9.77;1.50;;;;;;;;;;5029850;28;20044;-63
2021/10/22 02:16:46;;;;;;;9.75;1.52;;;;;;;;;;5039320;28;21511;-63
2021/10/22 02:19:12;;;;;;;13.13;1.90;;;;;;;;;;5038786;28;20049;-63
2021/10/22 02:21:39;;;;;;;8.23;1.98;;;;;;;;;;5036702;28;20592;-62
2021/10/22 02:24:05;;;;;;;9.38;1.65;;;;;;;;;;5032183;28;20053;-63
2021/10/22 02:26:33;;;;;;;8.68;1.30;;;;;;;;;;5039626;28;20048;-63
2021/10/22 02:28:59;;;;;;;11.68;1.42;;;;;;;;;;5032843;28;20049;-63
2021/10/22 02:31:25;;;;;;;10.15;1.75;;;;;;;;;;5033896;28;20061;-63
2021/10/22 02:33:52;;;;;;;7.57;1.80;;;;;;;;;;5034591;28;20670;-62
2021/10/22 02:36:18;;;;;;;11.52;2.00;;;;;;;;;;5039297;28;20049;-63
2021/10/22 02:38:45;;;;;;;10.07;1.95;;;;;;;;;;5026929;28;20049;-62
2021/10/22 02:41:11;;;;;;;10.80;1.98;;;;;;;;;;5037258;28;20061;-63
2021/10/22 02:43:38;;;;;;;10.68;1.95;;;;;;;;;;5026766;28;20497;-63
2021/10/22 02:46:04;;;;;;;9.55;1.50;;;;;;;;;;5043067;28;20057;-63
2021/10/22 02:48:30;;;;;;;10.77;2.00;;;;;;;;;;5032452;28;20076;-63
2021/10/22 02:50:58;;;;;;;9.32;1.70;;;;;;;;;;5045265;28;20573;-63
2021/10/22 02:53:24;;;;;;;11.10;1.80;;;;;;;;;;5034058;28;20056;-63
2021/10/22 02:55:50;;;;;;;11.05;1.75;;;;;;;;;;5036570;28;20053;-63
2021/10/22 02:58:17;;;;;;;12.57;1.77;;;;;;;;;;5034773;28;20048;-63
2021/10/22 03:00:44;;;;;;;12.40;2.00;;;;;;;;;;5043208;28;20045;-63
2021/10/22 03:03:10;;;;;;;12.80;2.08;;;;;;;;;;5036424;28;20049;-63
2021/10/22 03:05:37;;;;;;;9.50;1.90;;;;;;;;;;5036773;28;20045;-63
2021/10/22 03:08:03;;;;;;;15.27;2.33;;;;;;;;;;5040677;28;20059;-63
2021/10/22 03:10:30;;;;;;;7.68;1.73;;;;;;;;;;5040517;28;20049;-63
2021/10/22 03:12:56;;;;;;;14.35;2.30;;;;;;;;;;5030199;28;20056;-63
2021/10/22 03:15:22;;;;;;;8.00;1.98;;;;;;;;;;5038294;28;20053;-63
2021/10/22 03:17:48;;;;;;;20.95;3.20;;;;;;;;;;5038930;28;20041;-63
2021/10/22 03:20:15;;;;;;;11.77;2.33;;;;;;;;;;5037102;28;20433;-63
2021/10/22 03:22:41;;;;;;;6.90;2.05;;;;;;;;;;5040151;28;20048;-63
2021/10/22 03:25:08;;;;;;;10.68;1.95;;;;;;;;;;5043132;28;20601;-64
2021/10/22 03:27:34;;;;;;;10.25;1.90;;;;;;;;;;5041178;28;20049;-63
2021/10/22 03:30:01;;;;;;;13.02;2.28;;;;;;;;;;5040596;28;20049;-63
2021/10/22 03:32:27;;;;;;;14.55;2.60;;;;;;;;;;5041610;28;20049;-63
2021/10/22 03:34:53;;;;;;;12.65;2.47;;;;;;;;;;5033252;28;20059;-63
2021/10/22 03:37:20;;;;;;;15.25;2.55;;;;;;;;;;5033009;28;20666;-63
2021/10/22 03:39:46;;;;;;;10.95;2.42;;;;;;;;;;5015716;28;20053;-63
2021/10/22 03:42:12;;;;;;;14.73;3.30;;;;;;;;;;5038018;28;20049;-63
2021/10/22 03:44:38;;;;;;;14.68;3.00;;;;;;;;;;5020353;28;20053;-64
2021/10/22 03:47:05;;;;;;;12.98;2.53;;;;;;;;;;5035671;28;20049;-63
2021/10/22 03:49:31;;;;;;;15.30;2.72;;;;;;;;;;5033951;28;20044;-63
2021/10/22 03:51:58;;;;;;;12.55;2.58;;;;;;;;;;5035330;28;20059;-63
2021/10/22 03:54:24;;;;;;;13.95;3.22;;;;;;;;;;5029072;28;20053;-63
2021/10/22 03:56:50;;;;;;;12.98;2.33;;;;;;;;;;5039767;28;20049;-64
2021/10/22 03:59:17;;;;;;;13.75;3.35;;;;;;;;;;5035015;28;20045;-63
2021/10/22 04:01:43;;;;;;;13.18;2.85;;;;;;;;;;5035094;28;20389;-63
2021/10/22 04:04:10;;;;;;;16.88;3.15;;;;;;;;;;5031766;28;20053;-63
2021/10/22 04:06:36;;;;;;;13.38;3.03;;;;;;;;;;5041449;28;20048;-63
2021/10/22 04:09:03;;;;;;;16.70;2.92;;;;;;;;;;5036782;28;20053;-64
2021/10/22 04:11:29;;;;;;;10.23;3.45;;;;;;;;;;5037508;28;20049;-63
2021/10/22 04:13:56;;;;;;;16.92;3.50;;;;;;;;;;5035670;28;20049;-63
2021/10/22 04:16:26;;;;;;;20.42;3.60;;;;;;;;;;5039632;28;20164;-64
2021/10/22 04:18:52;;;;;;;13.10;3.70;;;;;;;;;;5033753;28;20068;-64
2021/10/22 04:21:19;;;;;;;17.95;4.32;;;;;;;;;;5038640;28;20064;-63
2021/10/22 04:23:45;;;;;;;14.73;3.95;;;;;;;;;;5035003;28;20056;-64
2021/10/22 04:26:12;;;;;;;19.85;3.45;;;;;;;;;;5044253;28;20601;-63
2021/10/22 04:28:39;;;;;;;18.95;3.95;;;;;;;;;;5040279;28;20041;-63
2021/10/22 04:31:05;;;;;;;12.65;2.97;;;;;;;;;;5042215;28;20063;-63
2021/10/22 04:33:32;;;;;;;13.32;3.15;;;;;;;;;;5033492;28;20049;-64
2021/10/22 04:35:58;;;;;;;14.00;3.55;;;;;;;;;;5042138;28;20064;-65
2021/10/22 04:41:09;;;;;;;10.75;3.35;;;;;;;;;;5039014;28;20478;-63
2021/10/22 04:43:37;;;;;;;14.95;3.10;;;;;;;;;;5033321;28;20045;-63
2021/10/22 04:46:03;;;;;;;9.18;2.60;;;;;;;;;;5039174;28;20049;-63
2021/10/22 04:48:30;;;;;;;16.92;4.10;;;;;;;;;;5025304;28;20102;-64
2021/10/22 04:50:57;;;;;;;13.63;2.97;;;;;;;;;;5039452;28;20053;-63
2021/10/22 04:53:25;;;;;;;16.63;3.38;;;;;;;;;;5041560;28;20052;-63
2021/10/22 04:55:52;;;;;;;;;;;;;;;;;;5040852;28;20509;-64
2021/10/22 04:58:18;;;;;;;14.25;3.15;;;;;;;;;;5034087;28;19931;-63
2021/10/22 05:01:04;;;;;;;14.48;3.75;;;;;;;;;;5035385;28;20063;-63
2021/10/22 05:03:31;;;;;;;14.85;3.42;;;;;;;;;;5028183;28;20481;-63
2021/10/22 05:05:58;;;;;;;12.75;2.75;;;;;;;;;;5037744;28;20045;-62
2021/10/22 05:08:24;;;;;;;16.52;3.63;;;;;;;;;;5025189;28;20049;-64
2021/10/22 05:10:51;;;;;;;13.20;2.97;;;;;;;;;;5037681;28;20049;-63
2021/10/22 05:13:17;;;;;;;9.90;2.97;;;;;;;;;;5028941;28;20469;-63
2021/10/22 05:15:43;;;;;;;17.92;3.60;;;;;;;;;;5038597;28;20760;-63
2021/10/22 05:18:10;;;;;;;15.15;3.70;;;;;;;;;;5031038;28;20037;-63
2021/10/22 05:20:36;;;;;;;14.57;3.22;;;;;;;;;;5042465;28;20049;-64
2021/10/22 05:23:07;;;;;;;13.30;3.40;;;;;;;;;;5029870;28;20048;-64
2021/10/22 05:25:34;;;;;;;15.73;3.35;;;;;;;;;;5041159;28;20055;-64
2021/10/22 05:28:00;;;;;;;13.55;2.92;;;;;;;;;;5033514;28;20152;-63
2021/10/22 05:30:26;;;;;;;19.15;3.78;;;;;;;;;;5039502;28;20052;-64
2021/10/22 05:32:53;;;;;;;13.88;3.00;;;;;;;;;;5027482;28;20061;-64
2021/10/22 05:35:19;;;;;;;16.55;3.08;;;;;;;;;;5038763;28;20394;-64
2021/10/22 05:37:45;;;;;;;11.48;2.90;;;;;;;;;;5028466;28;20041;-63
2021/10/22 05:40:12;;;;;;;13.63;2.70;;;;;;;;;;5038856;28;20051;-64
2021/10/22 05:42:38;;;;;;;10.73;2.55;;;;;;;;;;5047043;28;20049;-64
2021/10/22 05:45:05;;;;;;;12.80;3.10;;;;;;;;;;5035538;28;20238;-64
2021/10/22 05:47:31;;;;;;;14.50;2.97;;;;;;;;;;5033169;28;20713;-63
2021/10/22 05:49:57;;;;;;;15.63;3.10;;;;;;;;;;5038147;28;20055;-63
2021/10/22 05:52:24;;;;;;;12.93;2.90;;;;;;;;;;5041075;28;20054;-64
2021/10/22 05:54:50;;;;;;;12.38;3.25;;;;;;;;;;5036322;28;20485;-63
2021/10/22 05:57:17;;;;;;;14.18;2.72;;;;;;;;;;5029885;28;20048;-63
2021/10/22 05:59:43;;;;;;;14.60;3.08;;;;;;;;;;5038648;28;20651;-63
2021/10/22 06:02:14;;;;;;;19.48;3.15;;;;;;;;;;5021476;28;20521;-63
2021/10/22 06:04:41;;;;;;;11.98;3.05;;;;;;;;;;5036381;28;20103;-63
2021/10/22 06:07:07;;;;;;;11.50;2.45;;;;;;;;;;5034027;28;20057;-63
2021/10/22 06:09:33;;;;;;;12.95;3.42;;;;;;;;;;5024703;28;20592;-64
2021/10/22 06:12:01;;;;;;;17.35;3.22;;;;;;;;;;5034751;28;20055;-63
2021/10/22 06:14:28;;;;;;;20.20;3.25;;;;;;;;;;5034498;28;20076;-64
2021/10/22 06:16:55;;;;;;;13.80;3.20;;;;;;;;;;5027353;28;20402;-63
2021/10/22 06:19:25;;;;;;;12.48;2.65;;;;;;;;;;5023499;28;20496;-63
2021/10/22 06:22:11;;;;;;;18.70;2.80;;;;;;;;;;5037112;28;20493;-64
2021/10/22 06:24:38;;;;;;;9.48;2.42;;;;;;;;;;5041503;28;20071;-64
2021/10/22 06:27:04;;;;;;;11.93;3.63;;;;;;;;;;5025479;28;20568;-64
2021/10/22 06:29:33;;;;;;;19.65;3.10;;;;;;;;;;5043446;28;20048;-64
2021/10/22 06:32:00;;;;;;;15.82;3.67;;;;;;;;;;5032502;28;20131;-63
2021/10/22 06:34:27;;;;;;;14.57;2.80;;;;;;;;;;5039834;28;20057;-64
2021/10/22 06:36:53;;;;;;;16.30;2.80;;;;;;;;;;5027473;28;20046;-64
2021/10/22 06:39:20;;;;;;;16.10;3.58;;;;;;;;;;5040136;28;20298;-64
2021/10/22 06:41:46;;;;;;;14.70;3.38;;;;;;;;;;5033499;28;20053;-64
2021/10/22 06:44:17;;;;;;;15.60;3.22;;;;;;;;;;5039640;28;20045;-64
2021/10/22 06:46:44;;;;;;;19.98;3.85;;;;;;;;;;5045362;28;20132;-63
2021/10/22 06:49:11;;;;;;;14.32;3.63;;;;;;;;;;5036596;28;20041;-63
2021/10/22 06:51:38;;;;;;;17.30;3.45;;;;;;;;;;5040488;28;20048;-64
2021/10/22 06:54:04;;;;;;;15.13;3.63;;;;;;;;;;5039135;28;20053;-63
2021/10/22 06:56:30;;;;;;;16.73;4.13;;;;;;;;;;5046557;28;20060;-63
2021/10/22 06:58:57;;;;;;;12.50;2.65;;;;;;;;;;5038188;28;20053;-63
2021/10/22 07:01:23;;;;;;;19.35;4.15;;;;;;;;;;5032602;28;20140;-64
2021/10/22 07:03:50;;;;;;;18.08;3.40;;;;;;;;;;5035049;28;20048;-64
2021/10/22 07:09:01;;;;;;;13.57;3.42;;;;;;;;;;5035502;28;20839;-63
2021/10/22 07:11:28;;;;;;;10.95;3.42;;;;;;;;;;5031915;28;20045;-64
2021/10/22 07:13:55;;;;;;;14.77;3.45;;;;;;;;;;5036044;28;20075;-64
2021/10/22 07:16:22;;;;;;;17.48;4.00;;;;;;;;;;5030942;28;20064;-64
2021/10/22 07:18:50;;;;;;;13.93;3.88;;;;;;;;;;5041808;28;20053;-63
2021/10/22 07:21:17;;;;;;;19.35;4.03;;;;;;;;;;5032772;28;20044;-63
2021/10/22 07:23:44;;;;;;;16.67;3.50;;;;;;;;;;5037729;28;20053;-64
2021/10/22 07:26:11;;;;;;;15.63;3.30;;;;;;;;;;5030189;28;20090;-63
2021/10/22 07:28:37;;;;;;;12.48;3.13;;;;;;;;;;5039621;28;20060;-63
2021/10/22 07:31:04;;;;;;;13.57;3.22;;;;;;;;;;5031916;28;20053;-64
2021/10/22 07:33:31;;;;;;;14.68;3.70;;;;;;;;;;5035809;28;20081;-64
2021/10/22 07:35:57;;;;;;;20.75;3.50;;;;;;;;;;5034668;28;20049;-63
2021/10/22 07:38:24;;;;;;;20.75;4.35;;;;;;;;;;5040546;28;20049;-64
2021/10/22 07:40:50;;;;;;;11.55;3.20;;;;;;;;;;5037774;28;20081;-64
2021/10/22 07:43:19;;;;;;;13.45;3.25;;;;;;;;;;5036856;28;20076;-64
2021/10/22 07:45:46;;;;;;;11.82;2.92;;;;;;;;;;5036225;28;20395;-64
2021/10/22 07:48:12;;;;;;;13.80;3.88;;;;;;;;;;5033680;28;20049;-64
2021/10/22 07:50:38;;;;;;;9.18;2.85;;;;;;;;;;5029924;28;20151;-64
2021/10/22 07:53:06;;;;;;;12.23;3.70;;;;;;;;;;5035155;28;20144;-64
2021/10/22 07:55:34;;;;;;;12.63;3.10;;;;;;;;;;5041787;28;20059;-64
2021/10/22 07:58:02;;;;;;;20.55;3.35;;;;;;;;;;5036995;28;20056;-67
2021/10/22 08:00:28;;;;;;;15.93;4.15;;;;;;;;;;5039638;28;20053;-64
2021/10/22 08:02:55;;;;;;;12.35;3.10;;;;;;;;;;5035251;28;20470;-64
2021/10/22 08:05:22;;;;;;;12.18;3.25;;;;;;;;;;5027885;28;20059;-64
2021/10/22 08:07:48;;;;;;;14.65;3.42;;;;;;;;;;5033516;28;20131;-64
2021/10/22 08:10:14;;;;;;;14.93;2.50;;;;;;;;;;5025517;28;20064;-64
2021/10/22 08:12:41;;;;;;;15.13;3.70;;;;;;;;;;5040456;28;20553;-64
2021/10/22 08:15:08;;;;;;;15.65;3.05;;;;;;;;;;5034908;28;20111;-64
2021/10/22 08:17:35;;;;;;;9.45;2.63;;;;;;;;;;5029900;28;20064;-64
2021/10/22 08:20:06;;;;;;;13.93;3.75;;;;;;;;;;5036929;28;20037;-64
2021/10/22 08:22:32;;;;;;;10.20;2.88;;;;;;;;;;5016501;28;20516;-64
2021/10/22 08:25:25;;;;;;;13.43;3.25;;;;;;;;;;5037302;28;20053;-63
2021/10/22 08:27:51;;;;;;;14.65;3.10;;;;;;;;;;5029681;28;20041;-64
2021/10/22 08:30:21;;;;;;;14.43;3.00;;;;;;;;;;5032445;28;20047;-64
2021/10/22 08:32:51;;;;;;;15.52;2.92;;;;;;;;;;5030847;28;20791;-64
2021/10/22 08:35:20;;;;;;;18.85;3.45;;;;;;;;;;5032822;28;20306;-63
2021/10/22 08:37:46;;;;;;;9.98;2.72;;;;;;;;;;5031281;28;20289;-63
2021/10/22 08:40:14;;;;;;;14.52;2.50;;;;;;;;;;5032431;28;20049;-63
2021/10/22 08:42:45;;;;;;;13.95;2.90;;;;;;;;;;5031028;28;20374;-63
2021/10/22 08:45:12;;;;;;;14.65;2.90;;;;;;;;;;5035199;28;20447;-64
2021/10/22 08:47:38;;;;;;;13.13;2.67;;;;;;;;;;5030996;28;20055;-64
2021/10/22 08:50:07;;;;;;;10.50;2.65;;;;;;;;;;5039244;28;20068;-64
2021/10/22 08:52:33;;;;;;;;;;;;;;;;;;5036636;28;20095;-64
2021/10/22 08:55:00;;;;;;;11.02;2.15;;;;;;;;;;5036056;28;19920;-64
2021/10/22 08:57:27;;;;;;;10.90;2.72;;;;;;;;;;5030026;28;20045;-63
2021/10/22 08:59:57;;;;;;;12.43;2.67;;;;;;;;;;5034955;28;20732;-62
2021/10/22 09:02:25;;;;;;;16.85;3.17;;;;;;;;;;5028505;28;20527;-63
2021/10/22 09:04:56;;;;;;;14.38;3.05;;;;;;;;;;5037747;28;20041;-62
2021/10/22 09:07:37;;;;;;;15.48;3.00;;;;;;;;;;5039269;28;20056;-63
2021/10/22 09:10:05;;;;;;;16.42;2.38;;;;;;;;;;5037905;28;20053;-64
2021/10/22 09:12:42;;;;;;;10.32;2.40;;;;;;;;;;5037259;28;20060;-64
2021/10/22 09:15:09;;;;;;;18.67;2.92;;;;;;;;;;5030054;28;20056;-64
2021/10/22 09:17:38;;;;;;;12.45;2.60;;;;;;;;;;5037254;28;20044;-63
2021/10/22 09:20:05;;;;;;;13.25;2.67;;;;;;;;;;5032705;28;20057;-61
2021/10/22 09:22:35;;;;;;;13.57;2.40;;;;;;;;;;5036002;28;20048;-63
2021/10/22 09:25:01;;;;;;;10.82;2.47;;;;;;;;;;5034837;28;20052;-63
2021/10/22 09:27:34;;;;;;;14.57;2.00;;;;;;;;;;5039436;28;20041;-63
2021/10/22 09:30:00;;;;;;;24.15;3.15;;;;;;;;;;5032868;28;20623;-62
2021/10/22 09:32:29;;;;;;;20.30;2.72;;;;;;;;;;5036448;28;20970;-64
2021/10/22 09:35:05;;;;;;;6.10;2.08;;;;;;;;;;5029990;28;20132;-63
2021/10/22 09:37:38;;;;;;;14.38;2.53;;;;;;;;;;5033508;28;20048;-64
2021/10/22 09:40:04;;;;;;;14.88;2.22;;;;;;;;;;5026852;28;20038;-64
2021/10/22 09:42:32;;;;;;;15.13;2.83;;;;;;;;;;5031549;28;20053;-63
2021/10/22 09:44:58;;;;;;;12.40;2.30;;;;;;;;;;5032641;28;20044;-62
2021/10/22 09:47:29;;;;;;;14.27;2.63;;;;;;;;;;5029110;28;20060;-63
2021/10/22 09:50:06;;;;;;;13.90;2.33;;;;;;;;;;5027285;28;20045;-63
2021/10/22 09:52:32;;;;;;;14.50;3.25;;;;;;;;;;5042581;28;20057;-64
2021/10/22 09:55:08;;;;;;;14.48;2.67;;;;;;;;;;5035926;28;20045;-64
2021/10/22 09:57:35;;;;;;;14.43;2.13;;;;;;;;;;5040007;28;20049;-64
2021/10/22 10:00:06;;;;;;;15.63;2.17;;;;;;;;;;5038623;28;20048;-63
2021/10/22 10:02:34;;;;;;;15.18;2.20;;;;;;;;;;5033913;28;20045;-64
2021/10/22 10:05:01;;;;;;;13.63;2.53;;;;;;;;;;5025765;28;20540;-64
2021/10/22 10:07:27;;;;;;;14.48;2.33;;;;;;;;;;5040017;28;20049;-64
2021/10/22 10:09:54;;;;;;;14.13;1.70;;;;;;;;;;5041791;28;20037;-64
2021/10/22 10:12:21;;;;;;;7.50;1.58;;;;;;;;;;5042503;28;20052;-63
2021/10/22 10:14:47;;;;;;;11.82;2.15;;;;;;;;;;5043526;28;20059;-64
2021/10/22 10:17:14;;;;;;;13.55;2.80;;;;;;;;;;5038786;28;20082;-64
2021/10/22 10:19:43;;;;;;;14.00;2.15;;;;;;;;;;5039791;28;20617;-64
2021/10/22 10:22:12;;;;;;;8.40;2.15;;;;;;;;;;5041270;28;20063;-64
2021/10/22 10:24:42;;;;;;;9.77;1.55;;;;;;;;;;5038492;28;20053;-64
2021/10/22 10:27:14;;;;;;;9.65;2.10;;;;;;;;;;5044242;28;20053;-63
2021/10/22 10:29:41;;;;;;;7.47;1.75;;;;;;;;;;5034896;28;20063;-64
2021/10/22 10:32:09;;;;;;;15.10;2.60;;;;;;;;;;5035833;28;20238;-63
2021/10/22 10:34:36;;;;;;;16.33;2.10;;;;;;;;;;5032730;28;20160;-64
2021/10/22 10:37:04;;;;;;;14.30;3.10;;;;;;;;;;5034715;28;20044;-63
2021/10/22 10:39:36;;;;;;;11.38;2.08;;;;;;;;;;5027482;28;20045;-64
2021/10/22 10:42:21;;;;;;;11.27;2.05;;;;;;;;;;5040071;28;20044;-63
2021/10/22 10:44:48;;;;;;;13.73;2.03;;;;;;;;;;5033248;28;20464;-62
2021/10/22 10:47:27;;;;;;;9.13;2.20;;;;;;;;;;5042147;28;20053;-63
2021/10/22 10:49:53;;;;;;;14.20;2.30;;;;;;;;;;5032901;28;20049;-64
2021/10/22 10:52:38;;;;;;;12.02;1.88;;;;;;;;;;5041219;28;20128;-63
2021/10/22 10:55:21;;;;;;;13.05;2.53;;;;;;;;;;5026290;28;20053;-63
2021/10/22 10:57:52;;;;;;;7.95;2.17;;;;;;;;;;5039510;28;20673;-62
2021/10/22 11:00:21;;;;;;;15.63;2.30;;;;;;;;;;5027696;28;20543;-63
2021/10/22 11:03:02;;;;;;;18.27;3.13;;;;;;;;;;5037616;28;20512;-63
2021/10/22 11:05:45;;;;;;;13.43;2.95;;;;;;;;;;5032283;28;20482;-61
2021/10/22 11:08:15;;;;;;;11.50;2.20;;;;;;;;;;5039990;28;20042;-63
2021/10/22 11:11:02;;;;;;;13.73;1.95;;;;;;;;;;5033173;28;20045;-63
2021/10/22 11:13:46;;;;;;;21.92;3.22;;;;;;;;;;5040969;28;20057;-61
2021/10/22 11:16:21;;;;;;;16.80;2.25;;;;;;;;;;5032874;28;20059;-63
2021/10/22 11:18:48;;;;;;;16.55;2.45;;;;;;;;;;5037381;28;20045;-64
2021/10/22 11:21:15;;;;;;;18.35;2.45;;;;;;;;;;5043283;28;20058;-63
2021/10/22 11:23:41;;;;;;;12.63;2.53;;;;;;;;;;5029934;28;20049;-63
2021/10/22 11:26:13;;;;;;;14.52;1.88;;;;;;;;;;5039281;28;20517;-63
2021/10/22 11:28:40;;;;;;;8.95;1.65;;;;;;;;;;5030873;28;20048;-64
2021/10/22 11:31:06;;;;;;;16.67;1.92;;;;;;;;;;5040618;28;20068;-64
2021/10/22 11:33:32;;;;;;;13.18;1.63;;;;;;;;;;5037972;28;20076;-64
2021/10/22 11:35:59;;;;;;;19.42;1.85;;;;;;;;;;5034473;28;20367;-64
2021/10/22 11:38:27;;;;;;;8.05;1.60;;;;;;;;;;5043282;28;20517;-63
2021/10/22 11:40:54;;;;;;;13.23;1.98;;;;;;;;;;5032224;28;20498;-63
2021/10/22 11:43:21;;;;;;;12.55;1.90;;;;;;;;;;5039213;28;20064;-62
2021/10/22 11:45:53;;;;;;;10.38;2.03;;;;;;;;;;5042064;28;20055;-64
2021/10/22 11:48:32;;;;;;;14.93;1.48;;;;;;;;;;5035624;28;20513;-64
2021/10/22 11:50:59;;;;;;;9.10;1.90;;;;;;;;;;5036937;28;20102;-64
2021/10/22 11:53:26;;;;;;;13.55;1.65;;;;;;;;;;5038179;28;20045;-64
2021/10/22 11:55:53;;;;;;;12.32;1.60;;;;;;;;;;5041904;28;20877;-63
2021/10/22 11:58:21;;;;;;;9.00;1.95;;;;;;;;;;5030853;28;20434;-64
2021/10/22 12:00:52;;;;;;;12.10;1.67;;;;;;;;;;5039736;28;20048;-64
2021/10/22 12:03:25;;;;;;;10.43;1.65;;;;;;;;;;5041123;28;20453;-64
2021/10/22 12:05:54;;;;;;;11.45;1.58;;;;;;;;;;5038278;28;20060;-64
2021/10/22 12:08:20;;;;;;;8.60;1.40;;;;;;;;;;5028346;28;20583;-63
2021/10/22 12:10:51;;;;;;;13.45;1.85;;;;;;;;;;5040695;28;20417;-63
2021/10/22 12:13:29;;;;;;;10.00;1.88;;;;;;;;;;5029158;28;20049;-63
2021/10/22 12:16:09;;;;;;;13.60;1.92;;;;;;;;;;5039454;28;20052;-64
2021/10/22 12:18:36;;;;;;;15.25;2.08;;;;;;;;;;5040734;28;20502;-64
2021/10/22 12:21:03;;;;;;;8.52;1.73;;;;;;;;;;5036231;28;20051;-64
2021/10/22 12:23:29;;;;;;;12.88;1.83;;;;;;;;;;5027985;28;20052;-64
2021/10/22 12:25:55;;;;;;;17.15;1.67;;;;;;;;;;5043068;28;20042;-64
2021/10/22 12:28:22;;;;;;;13.85;1.85;;;;;;;;;;5034089;28;20053;-64
2021/10/22 12:31:05;;;;;;;5.05;0.98;;;;;;;;;;5040629;28;20473;-65
2021/10/22 12:33:31;;;;;;;9.25;1.55;;;;;;;;;;5034324;28;20113;-64
2021/10/22 12:36:02;;;;;;;10.80;1.77;;;;;;;;;;5040330;28;20072;-63
2021/10/22 12:38:32;;;;;;;17.90;1.90;;;;;;;;;;5030148;28;20057;-65
2021/10/22 12:41:03;;;;;;;10.07;1.30;;;;;;;;;;5018884;28;20554;-63
2021/10/22 12:43:30;;;;;;;10.73;1.73;;;;;;;;;;5035579;28;20045;-64
2021/10/22 12:45:57;;;;;;;8.33;2.00;;;;;;;;;;5037620;28;20071;-63
2021/10/22 12:48:47;;;;;;;8.35;1.40;;;;;;;;;;5029928;28;20081;-64
2021/10/22 12:51:15;;;;;;;9.55;1.40;;;;;;;;;;5034994;28;20045;-63
2021/10/22 12:53:42;;;;;;;11.30;1.90;;;;;;;;;;5030655;28;20210;-64
2021/10/22 12:56:16;;;;;;;9.88;2.05;;;;;;;;;;5041422;28;20139;-64
2021/10/22 12:58:59;;;;;;;15.52;1.65;;;;;;;;;;5026902;28;20041;-64
2021/10/22 13:01:35;;;;;;;16.08;1.92;;;;;;;;;;5043578;28;20099;-64
2021/10/22 13:04:04;;;;;;;13.52;1.83;;;;;;;;;;5033392;28;20053;-64
2021/10/22 13:06:43;;;;;;;13.02;1.90;;;;;;;;;;5043494;28;20123;-64
2021/10/22 13:22:21;;;;;;;17.50;2.53;;;;;;;;;;5033912;28;20060;-65
2021/10/22 13:24:53;;;;;;;16.40;2.28;;;;;;;;;;5031555;28;20040;-64
2021/10/22 13:27:22;;;;;;;9.90;2.08;;;;;;;;;;5036650;28;20052;-64
2021/10/22 13:29:53;;;;;;;12.77;2.03;;;;;;;;;;5039917;28;20059;-64
2021/10/22 13:32:20;;;;;;;10.20;1.92;;;;;;;;;;5034358;28;20054;-64
2021/10/22 13:34:46;;;;;;;14.85;1.92;;;;;;;;;;5033798;28;20373;-64
2021/10/22 13:37:13;;;;;;;8.80;2.00;;;;;;;;;;5031098;28;20060;-64
2021/10/22 13:39:39;;;;;;;13.70;1.70;;;;;;;;;;5030973;28;20552;-64
2021/10/22 13:42:05;;;;;;;14.60;1.85;;;;;;;;;;5035477;28;20068;-64
2021/10/22 13:44:32;;;;;;;12.63;2.20;;;;;;;;;;5030278;28;20446;-64
2021/10/22 13:46:58;;;;;;;15.52;2.13;;;;;;;;;;5041647;28;20067;-64
2021/10/22 13:49:24;;;;;;;7.75;1.48;;;;;;;;;;5028987;28;20151;-64
2021/10/22 13:51:51;;;;;;;14.48;2.10;;;;;;;;;;5038700;28;20064;-64
2021/10/22 13:54:18;;;;;;;10.02;1.85;;;;;;;;;;5037893;28;20574;-63
2021/10/22 13:56:44;;;;;;;11.48;1.70;;;;;;;;;;5041483;28;20516;-64
2021/10/22 13:59:10;;;;;;;8.70;1.23;;;;;;;;;;5026985;28;20064;-64
2021/10/22 14:01:37;;;;;;;10.95;1.42;;;;;;;;;;5038333;28;20717;-65
2021/10/22 14:04:04;;;;;;;8.10;1.15;;;;;;;;;;5031154;28;20551;-64
2021/10/22 14:06:36;;;;;;;9.02;1.00;;;;;;;;;;5036193;28;20046;-64
2021/10/22 14:09:06;;;;;;;4.88;1.73;;;;;;;;;;5017526;28;20405;-64
2021/10/22 14:12:19;;;;;;;7.20;2.00;;;;;;;;;;5036145;28;20044;-65
2021/10/22 14:31:10;;;;;;;9.60;1.13;;;;;;;;;;5024537;28;20063;-64
2021/10/22 14:33:37;;;;;;;9.70;1.17;;;;;;;;;;5033225;28;20048;-64
2021/10/22 14:36:03;;;;;;;7.82;1.15;;;;;;;;;;5034044;28;20045;-64
2021/10/22 14:41:15;;;;;;;6.75;1.20;;;;;;;;;;5615773;22;20149;-63
2021/10/22 14:43:44;;;;;;;8.70;1.80;;;;;;;;;;4994912;28;20073;-63
2021/10/22 14:46:17;;;;;;;;;;;;;;;;;;5001287;28;20057;-63
2021/10/22 14:48:58;;;;;;;8.80;1.35;;;;;;;;;;4997387;28;19926;-63
2021/10/22 14:51:38;;;;;;;5.13;1.13;;;;;;;;;;5004785;28;20053;-63
2021/10/22 14:54:06;;;;;;;7.07;1.00;;;;;;;;;;4997901;28;20054;-63
2021/10/22 14:56:32;;;;;;;4.50;1.20;;;;;;;;;;5000447;28;20045;-63
2021/10/22 14:58:59;;;;;;;12.48;1.50;;;;;;;;;;4990756;28;20269;-63
2021/10/22 15:01:27;;;;;;;6.57;1.10;;;;;;;;;;4996217;28;20048;-63
2021/10/22 15:03:54;;;;;;;7.35;1.40;;;;;;;;;;4994870;28;20462;-63
2021/10/22 15:06:21;;;;;;;8.80;1.20;;;;;;;;;;5004057;28;20429;-63
2021/10/22 15:08:48;;;;;;;10.45;1.73;;;;;;;;;;5003144;28;20068;-63
2021/10/22 15:11:15;;;;;;;7.05;1.25;;;;;;;;;;4992111;28;20603;-63
2021/10/22 15:13:42;;;;;;;5.70;1.08;;;;;;;;;;4996428;28;20049;-63
2021/10/22 15:16:08;;;;;;;8.50;1.42;;;;;;;;;;4993035;28;20429;-64
2021/10/22 15:18:34;;;;;;;8.95;1.50;;;;;;;;;;4999489;28;20046;-63